createdAt,value
2024-01-20T00:00:58.555Z,474.00
2024-01-20T00:01:58.514Z,477.00
2024-01-20T00:02:58.500Z,477.00
2024-01-20T00:03:58.558Z,478.00
2024-01-20T00:04:58.568Z,478.00
2024-01-20T00:05:58.551Z,479.00
2024-01-20T00:06:58.677Z,478.00
2024-01-20T00:07:58.584Z,476.00
2024-01-20T00:08:58.608Z,476.00
2024-01-20T00:09:58.602Z,478.00
2024-01-20T00:10:58.614Z,479.00
2024-01-20T00:11:58.644Z,479.00
2024-01-20T00:12:58.621Z,480.00
2024-01-20T00:13:58.698Z,477.00
2024-01-20T00:14:58.658Z,478.00
2024-01-20T00:15:58.647Z,479.00
2024-01-20T00:17:03.301Z,478.00
2024-01-20T00:17:59.717Z,479.00
2024-01-20T00:18:58.746Z,480.00
2024-01-20T00:19:58.749Z,479.00
2024-01-20T00:20:58.678Z,479.00
2024-01-20T00:21:58.673Z,479.00
2024-01-20T00:22:58.712Z,476.00
2024-01-20T00:23:58.672Z,477.00
2024-01-20T00:24:58.664Z,478.00
2024-01-20T00:25:58.686Z,476.00
2024-01-20T00:26:58.660Z,474.00
2024-01-20T00:27:58.674Z,473.00
2024-01-20T00:28:58.704Z,470.00
2024-01-20T00:29:58.669Z,470.00
2024-01-20T00:30:58.666Z,472.00
2024-01-20T00:31:58.711Z,474.00
2024-01-20T00:32:58.731Z,475.00
2024-01-20T00:33:58.743Z,476.00
2024-01-20T00:35:05.681Z,476.00
2024-01-20T00:35:59.724Z,479.00
2024-01-20T00:36:58.676Z,479.00
2024-01-20T00:37:58.702Z,480.00
2024-01-20T00:38:58.683Z,477.00
2024-01-20T00:39:58.685Z,475.00
2024-01-20T00:40:58.710Z,476.00
2024-01-20T00:41:58.685Z,476.00
2024-01-20T00:42:58.682Z,477.00
2024-01-20T00:43:58.720Z,478.00
2024-01-20T00:44:58.697Z,477.00
2024-01-20T00:45:58.679Z,476.00
2024-01-20T00:46:58.704Z,477.00
2024-01-20T00:47:58.736Z,476.00
2024-01-20T00:48:58.748Z,475.00
2024-01-20T00:49:58.744Z,475.00
2024-01-20T00:50:58.709Z,474.00
2024-01-20T00:51:58.696Z,473.00
2024-01-20T00:52:58.725Z,475.00
2024-01-20T00:53:58.698Z,474.00
2024-01-20T00:54:58.705Z,475.00
2024-01-20T00:55:58.700Z,472.00
2024-01-20T00:56:58.684Z,473.00
2024-01-20T00:57:58.695Z,473.00
2024-01-20T00:58:58.730Z,473.00
2024-01-20T00:59:58.704Z,472.00
2024-01-20T01:00:58.708Z,474.00
2024-01-20T01:01:58.701Z,475.00
2024-01-20T01:02:58.735Z,477.00
2024-01-20T01:03:58.702Z,475.00
2024-01-20T01:04:58.714Z,475.00
2024-01-20T01:05:58.707Z,476.00
2024-01-20T01:06:58.701Z,475.00
2024-01-20T01:07:58.734Z,473.00
2024-01-20T01:08:58.720Z,471.00
2024-01-20T01:09:58.722Z,471.00
2024-01-20T01:10:58.758Z,470.00
2024-01-20T01:11:58.742Z,468.00
2024-01-20T01:12:58.789Z,467.00
2024-01-20T01:13:58.827Z,467.00
2024-01-20T01:14:58.787Z,469.00
2024-01-20T01:15:58.813Z,468.00
2024-01-20T01:16:58.975Z,471.00
2024-01-20T01:17:58.877Z,473.00
2024-01-20T01:18:58.862Z,473.00
2024-01-20T01:19:58.890Z,474.00
2024-01-20T01:20:58.896Z,473.00
2024-01-20T01:21:58.913Z,473.00
2024-01-20T01:22:58.916Z,472.00
2024-01-20T01:23:58.933Z,472.00
2024-01-20T01:24:58.924Z,471.00
2024-01-20T01:25:59.040Z,471.00
2024-01-20T01:26:59.091Z,473.00
2024-01-20T01:27:58.962Z,473.00
2024-01-20T01:28:59.002Z,475.00
2024-01-20T01:29:59.047Z,475.00
2024-01-20T01:30:59.044Z,475.00
2024-01-20T01:31:59.105Z,477.00
2024-01-20T01:32:59.065Z,475.00
2024-01-20T01:33:59.083Z,475.00
2024-01-20T01:34:59.154Z,476.00
2024-01-20T01:35:59.096Z,477.00
2024-01-20T01:36:59.091Z,480.00
2024-01-20T01:37:59.199Z,480.00
2024-01-20T01:38:59.142Z,480.00
2024-01-20T01:39:59.158Z,478.00
2024-01-20T01:40:59.173Z,477.00
2024-01-20T01:41:59.186Z,475.00
2024-01-20T01:42:59.187Z,475.00
2024-01-20T01:43:59.289Z,475.00
2024-01-20T01:44:59.225Z,474.00
2024-01-20T01:45:59.265Z,473.00
2024-01-20T01:46:59.307Z,472.00
2024-01-20T01:47:59.395Z,472.00
2024-01-20T01:48:59.321Z,472.00
2024-01-20T01:49:59.355Z,474.00
2024-01-20T01:50:59.361Z,473.00
2024-01-20T01:51:59.334Z,473.00
2024-01-20T01:52:59.352Z,475.00
2024-01-20T01:53:59.409Z,475.00
2024-01-20T01:54:59.385Z,478.00
2024-01-20T01:55:59.404Z,479.00
2024-01-20T01:56:59.461Z,477.00
2024-01-20T01:57:59.442Z,478.00
2024-01-20T01:58:59.463Z,477.00
2024-01-20T01:59:59.548Z,475.00
2024-01-20T02:00:59.529Z,475.00
2024-01-20T02:01:59.502Z,473.00
2024-01-20T02:02:59.582Z,472.00
2024-01-20T02:03:59.608Z,474.00
2024-01-20T02:04:59.562Z,475.00
2024-01-20T02:05:59.653Z,475.00
2024-01-20T02:06:59.648Z,477.00
2024-01-20T02:07:59.610Z,477.00
2024-01-20T02:08:59.673Z,477.00
2024-01-20T02:09:59.657Z,478.00
2024-01-20T02:10:59.673Z,482.00
2024-01-20T02:11:59.716Z,481.00
2024-01-20T02:12:59.716Z,484.00
2024-01-20T02:13:59.731Z,484.00
2024-01-20T02:14:59.746Z,484.00
2024-01-20T02:15:59.766Z,484.00
2024-01-20T02:16:59.803Z,482.00
2024-01-20T02:17:59.920Z,481.00
2024-01-20T02:19:00.160Z,480.00
2024-01-20T02:19:59.815Z,481.00
2024-01-20T02:20:59.886Z,484.00
2024-01-20T02:21:59.846Z,484.00
2024-01-20T02:22:59.879Z,480.00
2024-01-20T02:23:59.918Z,480.00
2024-01-20T02:24:59.917Z,482.00
2024-01-20T02:25:59.922Z,482.00
2024-01-20T02:26:59.966Z,479.00
2024-01-20T02:27:59.984Z,478.00
2024-01-20T02:28:59.990Z,475.00
2024-01-20T02:30:00.030Z,475.00
2024-01-20T02:31:00.025Z,476.00
2024-01-20T02:32:00.087Z,479.00
2024-01-20T02:33:00.179Z,478.00
2024-01-20T02:34:00.228Z,479.00
2024-01-20T02:35:00.147Z,482.00
2024-01-20T02:36:00.180Z,484.00
2024-01-20T02:37:00.165Z,482.00
2024-01-20T02:38:00.193Z,481.00
2024-01-20T02:39:00.282Z,480.00
2024-01-20T02:40:00.263Z,479.00
2024-01-20T02:41:00.260Z,479.00
2024-01-20T02:42:00.324Z,479.00
2024-01-20T02:43:00.301Z,478.00
2024-01-20T02:44:00.352Z,478.00
2024-01-20T02:45:00.432Z,478.00
2024-01-20T02:46:00.358Z,475.00
2024-01-20T02:47:00.397Z,473.00
2024-01-20T02:48:00.660Z,473.00
2024-01-20T02:49:00.671Z,472.00
2024-01-20T02:50:00.541Z,473.00
2024-01-20T02:51:00.498Z,475.00
2024-01-20T02:52:00.500Z,476.00
2024-01-20T02:53:00.514Z,476.00
2024-01-20T02:54:00.579Z,475.00
2024-01-20T02:55:00.617Z,473.00
2024-01-20T02:56:00.591Z,474.00
2024-01-20T02:57:00.631Z,476.00
2024-01-20T02:58:00.621Z,476.00
2024-01-20T02:59:00.667Z,477.00
2024-01-20T03:00:01.673Z,477.00
2024-01-20T03:01:00.774Z,479.00
2024-01-20T03:02:00.749Z,478.00
2024-01-20T03:03:00.878Z,481.00
2024-01-20T03:04:00.890Z,484.00
2024-01-20T03:05:00.944Z,483.00
2024-01-20T03:06:00.896Z,483.00
2024-01-20T03:07:00.888Z,482.00
2024-01-20T03:08:00.896Z,480.00
2024-01-20T03:09:00.941Z,480.00
2024-01-20T03:10:00.971Z,480.00
2024-01-20T03:11:01.013Z,480.00
2024-01-20T03:12:01.025Z,478.00
2024-01-20T03:13:01.026Z,479.00
2024-01-20T03:14:01.061Z,479.00
2024-01-20T03:15:01.169Z,477.00
2024-01-20T03:16:01.114Z,477.00
2024-01-20T03:17:01.159Z,477.00
2024-01-20T03:18:01.209Z,478.00
2024-01-20T03:19:01.257Z,476.00
2024-01-20T03:20:01.259Z,476.00
2024-01-20T03:21:01.294Z,478.00
2024-01-20T03:22:01.342Z,477.00
2024-01-20T03:23:01.339Z,475.00
2024-01-20T03:24:01.440Z,474.00
2024-01-20T03:25:01.489Z,474.00
2024-01-20T03:26:01.464Z,473.00
2024-01-20T03:27:01.492Z,471.00
2024-01-20T03:28:01.476Z,469.00
2024-01-20T03:29:01.500Z,470.00
2024-01-20T03:30:01.553Z,469.00
2024-01-20T03:31:01.568Z,472.00
2024-01-20T03:32:01.574Z,473.00
2024-01-20T03:33:01.694Z,473.00
2024-01-20T03:34:01.674Z,477.00
2024-01-20T03:35:01.661Z,478.00
2024-01-20T03:36:01.715Z,480.00
2024-01-20T03:37:01.709Z,483.00
2024-01-20T03:38:01.738Z,483.00
2024-01-20T03:39:01.819Z,483.00
2024-01-20T03:40:01.811Z,483.00
2024-01-20T03:41:01.826Z,479.00
2024-01-20T03:42:01.892Z,477.00
2024-01-20T03:43:01.892Z,477.00
2024-01-20T03:44:01.963Z,478.00
2024-01-20T03:45:02.037Z,479.00
2024-01-20T03:46:02.021Z,481.00
2024-01-20T03:47:02.052Z,483.00
2024-01-20T03:48:02.093Z,482.00
2024-01-20T03:49:02.244Z,480.00
2024-01-20T03:50:02.252Z,479.00
2024-01-20T03:51:02.248Z,479.00
2024-01-20T03:52:02.172Z,480.00
2024-01-20T03:53:02.216Z,480.00
2024-01-20T03:54:02.285Z,481.00
2024-01-20T03:55:02.290Z,481.00
2024-01-20T03:56:02.285Z,480.00
2024-01-20T03:57:02.333Z,479.00
2024-01-20T03:58:02.358Z,479.00
2024-01-20T03:59:02.372Z,477.00
2024-01-20T04:00:02.435Z,477.00
2024-01-20T04:01:02.478Z,476.00
2024-01-20T04:02:02.448Z,477.00
2024-01-20T04:03:02.583Z,478.00
2024-01-20T04:04:02.628Z,478.00
2024-01-20T04:05:02.621Z,478.00
2024-01-20T04:06:02.617Z,478.00
2024-01-20T04:07:02.585Z,478.00
2024-01-20T04:08:02.611Z,478.00
2024-01-20T04:09:02.622Z,480.00
2024-01-20T04:10:02.646Z,480.00
2024-01-20T04:11:02.704Z,481.00
2024-01-20T04:12:02.822Z,480.00
2024-01-20T04:13:02.738Z,480.00
2024-01-20T04:14:02.781Z,477.00
2024-01-20T04:15:02.850Z,475.00
2024-01-20T04:16:02.836Z,475.00
2024-01-20T04:17:10.558Z,476.00
2024-01-20T04:18:10.692Z,475.00
2024-01-20T04:19:10.744Z,474.00
2024-01-20T04:20:10.596Z,471.00
2024-01-20T04:21:10.631Z,472.00
2024-01-20T04:22:10.579Z,474.00
2024-01-20T04:23:10.614Z,476.00
2024-01-20T04:24:10.604Z,474.00
2024-01-20T04:25:10.605Z,473.00
2024-01-20T04:26:10.579Z,474.00
2024-01-20T04:27:10.597Z,473.00
2024-01-20T04:28:10.595Z,473.00
2024-01-20T04:29:10.672Z,472.00
2024-01-20T04:30:10.681Z,471.00
2024-01-20T04:31:18.399Z,476.00
2024-01-20T04:32:18.406Z,473.00
2024-01-20T04:33:18.533Z,474.00
2024-01-20T04:34:18.557Z,473.00
2024-01-20T04:35:18.477Z,474.00
2024-01-20T04:36:18.521Z,474.00
2024-01-20T04:37:18.492Z,472.00
2024-01-20T04:38:18.509Z,473.00
2024-01-20T04:39:18.484Z,475.00
2024-01-20T04:40:18.509Z,477.00
2024-01-20T04:41:18.479Z,477.00
2024-01-20T04:42:18.520Z,474.00
2024-01-20T04:43:18.481Z,473.00
2024-01-20T04:44:18.642Z,473.00
2024-01-20T04:45:18.534Z,472.00
2024-01-20T04:46:18.484Z,470.00
2024-01-20T04:47:18.478Z,469.00
2024-01-20T04:48:18.600Z,470.00
2024-01-20T04:49:18.627Z,471.00
2024-01-20T04:50:18.481Z,472.00
2024-01-20T04:51:18.593Z,472.00
2024-01-20T04:52:18.473Z,472.00
2024-01-20T04:53:18.485Z,472.00
2024-01-20T04:54:18.534Z,472.00
2024-01-20T04:55:18.499Z,474.00
2024-01-20T04:56:18.492Z,473.00
2024-01-20T04:57:18.522Z,472.00
2024-01-20T04:58:18.470Z,473.00
2024-01-20T04:59:18.495Z,472.00
2024-01-20T05:00:18.579Z,474.00
2024-01-20T05:01:18.506Z,476.00
2024-01-20T05:02:18.503Z,476.00
2024-01-20T05:03:18.516Z,476.00
2024-01-20T05:04:18.544Z,475.00
2024-01-20T05:05:18.503Z,476.00
2024-01-20T05:06:18.532Z,474.00
2024-01-20T05:07:18.586Z,474.00
2024-01-20T05:08:18.492Z,476.00
2024-01-20T05:09:18.555Z,477.00
2024-01-20T05:10:18.504Z,476.00
2024-01-20T05:11:18.515Z,478.00
2024-01-20T05:12:18.527Z,480.00
2024-01-20T05:13:18.494Z,480.00
2024-01-20T05:14:18.518Z,478.00
2024-01-20T05:15:18.558Z,476.00
2024-01-20T05:16:18.496Z,472.00
2024-01-20T05:17:18.519Z,471.00
2024-01-20T05:18:18.566Z,472.00
2024-01-20T05:19:18.585Z,472.00
2024-01-20T05:20:18.548Z,474.00
2024-01-20T05:21:18.524Z,474.00
2024-01-20T05:22:18.510Z,474.00
2024-01-20T05:23:18.497Z,473.00
2024-01-20T05:24:18.545Z,472.00
2024-01-20T05:25:18.514Z,472.00
2024-01-20T05:26:18.549Z,473.00
2024-01-20T05:27:18.605Z,473.00
2024-01-20T05:28:18.613Z,475.00
2024-01-20T05:29:18.668Z,474.00
2024-01-20T05:30:18.771Z,472.00
2024-01-20T05:31:18.700Z,475.00
2024-01-20T05:32:18.739Z,477.00
2024-01-20T05:33:18.865Z,475.00
2024-01-20T05:34:18.978Z,475.00
2024-01-20T05:35:18.865Z,474.00
2024-01-20T05:36:18.974Z,473.00
2024-01-20T05:37:18.943Z,471.00
2024-01-20T05:38:18.949Z,471.00
2024-01-20T05:39:19.016Z,469.00
2024-01-20T05:40:19.021Z,469.00
2024-01-20T05:41:19.045Z,469.00
2024-01-20T05:42:19.141Z,471.00
2024-01-20T05:43:19.127Z,473.00
2024-01-20T05:44:19.169Z,474.00
2024-01-20T05:45:19.206Z,473.00
2024-01-20T05:46:19.229Z,471.00
2024-01-20T05:47:19.256Z,471.00
2024-01-20T05:48:19.397Z,471.00
2024-01-20T05:49:19.437Z,471.00
2024-01-20T05:50:19.358Z,470.00
2024-01-20T05:51:19.436Z,472.00
2024-01-20T05:52:19.418Z,471.00
2024-01-20T05:53:19.469Z,469.00
2024-01-20T05:54:19.549Z,468.00
2024-01-20T05:55:19.573Z,471.00
2024-01-20T05:56:19.566Z,471.00
2024-01-20T05:57:19.647Z,470.00
2024-01-20T05:58:19.642Z,468.00
2024-01-20T05:59:19.688Z,467.00
2024-01-20T06:00:19.780Z,465.00
2024-01-20T06:01:19.769Z,464.00
2024-01-20T06:02:19.798Z,465.00
2024-01-20T06:03:19.890Z,467.00
2024-01-20T06:04:19.878Z,469.00
2024-01-20T06:05:19.933Z,471.00
2024-01-20T06:06:19.910Z,473.00
2024-01-20T06:07:19.956Z,473.00
2024-01-20T06:08:19.986Z,473.00
2024-01-20T06:09:20.074Z,472.00
2024-01-20T06:10:20.088Z,473.00
2024-01-20T06:11:20.096Z,472.00
2024-01-20T06:12:20.136Z,474.00
2024-01-20T06:13:20.171Z,475.00
2024-01-20T06:14:20.530Z,474.00
2024-01-20T06:15:20.273Z,474.00
2024-01-20T06:16:20.288Z,472.00
2024-01-20T06:17:20.320Z,473.00
2024-01-20T06:18:20.474Z,473.00
2024-01-20T06:19:20.516Z,474.00
2024-01-20T06:20:20.462Z,475.00
2024-01-20T06:21:20.512Z,474.00
2024-01-20T06:22:20.542Z,475.00
2024-01-20T06:23:20.573Z,475.00
2024-01-20T06:24:20.639Z,475.00
2024-01-20T06:25:20.654Z,474.00
2024-01-20T06:26:20.702Z,474.00
2024-01-20T06:28:24.898Z,472.00
2024-01-20T06:29:24.894Z,472.00
2024-01-20T06:30:24.982Z,476.00
2024-01-20T06:31:24.965Z,476.00
2024-01-20T06:32:25.049Z,476.00
2024-01-20T06:33:25.294Z,478.00
2024-01-20T06:34:25.132Z,479.00
2024-01-20T06:35:25.062Z,478.00
2024-01-20T06:36:25.061Z,477.00
2024-01-20T06:37:25.050Z,476.00
2024-01-20T06:38:25.070Z,477.00
2024-01-20T06:39:25.083Z,477.00
2024-01-20T06:40:25.058Z,476.00
2024-01-20T06:41:25.051Z,476.00
2024-01-20T06:42:25.081Z,479.00
2024-01-20T06:43:25.057Z,479.00
2024-01-20T06:44:25.043Z,480.00
2024-01-20T06:45:25.124Z,479.00
2024-01-20T06:46:25.043Z,481.00
2024-01-20T06:47:25.096Z,482.00
2024-01-20T06:48:25.131Z,483.00
2024-01-20T06:49:25.103Z,483.00
2024-01-20T06:50:25.055Z,482.00
2024-01-20T06:51:25.047Z,482.00
2024-01-20T06:52:25.063Z,481.00
2024-01-20T06:53:25.043Z,481.00
2024-01-20T06:54:25.100Z,484.00
2024-01-20T06:55:25.048Z,484.00
2024-01-20T06:56:25.059Z,484.00
2024-01-20T06:57:25.086Z,481.00
2024-01-20T06:58:25.048Z,482.00
2024-01-20T06:59:25.055Z,482.00
2024-01-20T07:00:25.106Z,482.00
2024-01-20T07:01:25.081Z,483.00
2024-01-20T07:02:25.067Z,481.00
2024-01-20T07:03:25.126Z,482.00
2024-01-20T07:04:25.185Z,481.00
2024-01-20T07:05:25.086Z,483.00
2024-01-20T07:06:25.157Z,481.00
2024-01-20T07:07:25.051Z,479.00
2024-01-20T07:08:25.073Z,476.00
2024-01-20T07:09:25.086Z,475.00
2024-01-20T07:10:25.067Z,477.00
2024-01-20T07:11:25.072Z,477.00
2024-01-20T07:12:25.154Z,478.00
2024-01-20T07:13:25.168Z,480.00
2024-01-20T07:14:25.251Z,482.00
2024-01-20T07:15:25.312Z,483.00
2024-01-20T07:16:25.361Z,483.00
2024-01-20T07:17:25.388Z,481.00
2024-01-20T07:18:25.513Z,481.00
2024-01-20T07:19:25.511Z,483.00
2024-01-20T07:20:25.521Z,486.00
2024-01-20T07:21:25.617Z,487.00
2024-01-20T07:22:25.619Z,486.00
2024-01-20T07:23:25.672Z,484.00
2024-01-20T07:24:25.782Z,484.00
2024-01-20T07:25:25.781Z,486.00
2024-01-20T07:26:25.837Z,484.00
2024-01-20T07:27:25.925Z,483.00
2024-01-20T07:28:25.930Z,485.00
2024-01-20T07:29:25.976Z,487.00
2024-01-20T07:30:26.021Z,487.00
2024-01-20T07:31:26.085Z,485.00
2024-01-20T07:32:26.133Z,485.00
2024-01-20T07:33:26.276Z,486.00
2024-01-20T07:34:26.231Z,486.00
2024-01-20T07:35:26.249Z,483.00
2024-01-20T07:36:26.288Z,483.00
2024-01-20T07:37:26.320Z,483.00
2024-01-20T07:38:26.386Z,484.00
2024-01-20T07:39:26.489Z,484.00
2024-01-20T07:40:26.487Z,485.00
2024-01-20T07:41:26.522Z,486.00
2024-01-20T07:42:26.585Z,485.00
2024-01-20T07:43:26.617Z,487.00
2024-01-20T07:44:26.678Z,486.00
2024-01-20T07:45:26.728Z,486.00
2024-01-20T07:46:26.778Z,486.00
2024-01-20T07:47:26.837Z,483.00
2024-01-20T07:48:26.986Z,482.00
2024-01-20T07:49:27.006Z,481.00
2024-01-20T07:50:26.951Z,482.00
2024-01-20T07:51:27.066Z,482.00
2024-01-20T07:52:27.048Z,481.00
2024-01-20T07:53:27.083Z,480.00
2024-01-20T07:54:27.243Z,481.00
2024-01-20T07:55:27.149Z,481.00
2024-01-20T07:56:27.201Z,480.00
2024-01-20T07:57:27.278Z,483.00
2024-01-20T07:58:27.262Z,485.00
2024-01-20T07:59:27.315Z,484.00
2024-01-20T08:00:27.412Z,486.00
2024-01-20T08:01:27.437Z,487.00
2024-01-20T08:02:27.396Z,489.00
2024-01-20T08:03:27.515Z,490.00
2024-01-20T08:04:27.477Z,492.00
2024-01-20T08:05:27.476Z,493.00
2024-01-20T08:06:27.567Z,491.00
2024-01-20T08:07:27.498Z,490.00
2024-01-20T08:08:27.537Z,490.00
2024-01-20T08:09:27.562Z,490.00
2024-01-20T08:10:27.551Z,492.00
2024-01-20T08:11:27.563Z,492.00
2024-01-20T08:12:27.582Z,491.00
2024-01-20T08:13:27.587Z,492.00
2024-01-20T08:14:27.584Z,492.00
2024-01-20T08:15:27.611Z,491.00
2024-01-20T08:16:27.599Z,492.00
2024-01-20T08:17:27.617Z,494.00
2024-01-20T08:18:27.711Z,493.00
2024-01-20T08:19:27.793Z,495.00
2024-01-20T08:20:27.691Z,494.00
2024-01-20T08:21:27.764Z,494.00
2024-01-20T08:22:27.800Z,493.00
2024-01-20T08:23:27.867Z,494.00
2024-01-20T08:24:27.941Z,493.00
2024-01-20T08:25:28.023Z,491.00
2024-01-20T08:26:28.059Z,491.00
2024-01-20T08:27:28.160Z,496.00
2024-01-20T08:28:28.213Z,498.00
2024-01-20T08:29:28.277Z,493.00
2024-01-20T08:30:28.449Z,493.00
2024-01-20T08:31:28.427Z,494.00
2024-01-20T08:32:29.118Z,492.00
2024-01-20T08:33:28.661Z,491.00
2024-01-20T08:34:28.654Z,490.00
2024-01-20T08:35:28.580Z,487.00
2024-01-20T08:36:28.744Z,488.00
2024-01-20T08:37:28.670Z,488.00
2024-01-20T08:38:28.697Z,488.00
2024-01-20T08:39:28.819Z,488.00
2024-01-20T08:40:28.760Z,492.00
2024-01-20T08:41:28.775Z,491.00
2024-01-20T08:42:28.828Z,491.00
2024-01-20T08:43:28.811Z,494.00
2024-01-20T08:44:28.820Z,491.00
2024-01-20T08:45:28.873Z,490.00
2024-01-20T08:46:28.837Z,490.00
2024-01-20T08:47:28.859Z,491.00
2024-01-20T08:48:29.000Z,492.00
2024-01-20T08:49:29.049Z,491.00
2024-01-20T08:50:29.054Z,493.00
2024-01-20T08:51:29.156Z,492.00
2024-01-20T08:52:29.186Z,491.00
2024-01-20T08:53:29.250Z,492.00
2024-01-20T08:54:29.393Z,492.00
2024-01-20T08:55:29.359Z,492.00
2024-01-20T08:56:29.434Z,493.00
2024-01-20T08:57:29.489Z,494.00
2024-01-20T08:58:29.498Z,495.00
2024-01-20T08:59:29.566Z,493.00
2024-01-20T09:00:29.694Z,491.00
2024-01-20T09:01:29.667Z,491.00
2024-01-20T09:02:29.709Z,491.00
2024-01-20T09:03:29.790Z,489.00
2024-01-20T09:04:29.761Z,490.00
2024-01-20T09:05:37.907Z,489.00
2024-01-20T09:06:30.952Z,489.00
2024-01-20T09:07:29.783Z,489.00
2024-01-20T09:08:29.809Z,491.00
2024-01-20T09:09:29.852Z,491.00
2024-01-20T09:10:29.806Z,493.00
2024-01-20T09:11:29.793Z,494.00
2024-01-20T09:12:29.848Z,494.00
2024-01-20T09:13:29.833Z,494.00
2024-01-20T09:14:29.821Z,494.00
2024-01-20T09:15:29.909Z,493.00
2024-01-20T09:16:29.814Z,493.00
2024-01-20T09:17:29.812Z,494.00
2024-01-20T09:18:29.997Z,491.00
2024-01-20T09:19:29.933Z,489.00
2024-01-20T09:20:29.987Z,489.00
2024-01-20T09:21:29.866Z,489.00
2024-01-20T09:22:29.924Z,489.00
2024-01-20T09:23:29.992Z,491.00
2024-01-20T09:24:30.071Z,495.00
2024-01-20T09:25:30.108Z,495.00
2024-01-20T09:26:30.159Z,494.00
2024-01-20T09:27:30.238Z,493.00
2024-01-20T09:28:30.277Z,495.00
2024-01-20T09:29:30.280Z,494.00
2024-01-20T09:30:31.068Z,495.00
2024-01-20T09:31:30.384Z,492.00
2024-01-20T09:32:30.470Z,493.00
2024-01-20T09:33:30.681Z,495.00
2024-01-20T09:34:30.627Z,492.00
2024-01-20T09:35:30.642Z,489.00
2024-01-20T09:36:30.730Z,489.00
2024-01-20T09:37:30.783Z,490.00
2024-01-20T09:38:30.847Z,489.00
2024-01-20T09:39:30.936Z,491.00
2024-01-20T09:40:30.922Z,490.00
2024-01-20T09:41:30.992Z,489.00
2024-01-20T09:42:31.107Z,488.00
2024-01-20T09:43:33.516Z,489.00
2024-01-20T09:44:31.264Z,491.00
2024-01-20T09:45:31.313Z,490.00
2024-01-20T09:46:31.346Z,489.00
2024-01-20T09:47:31.402Z,491.00
2024-01-20T09:48:31.508Z,489.00
2024-01-20T09:49:31.608Z,489.00
2024-01-20T09:50:31.447Z,488.00
2024-01-20T09:51:31.506Z,488.00
2024-01-20T09:52:31.504Z,490.00
2024-01-20T09:53:31.521Z,492.00
2024-01-20T09:54:31.561Z,493.00
2024-01-20T09:55:31.569Z,494.00
2024-01-20T09:56:31.576Z,494.00
2024-01-20T09:57:31.691Z,493.00
2024-01-20T09:58:31.630Z,492.00
2024-01-20T09:59:31.661Z,492.00
2024-01-20T10:00:31.850Z,492.00
2024-01-20T10:01:31.820Z,491.00
2024-01-20T10:02:31.773Z,489.00
2024-01-20T10:03:31.867Z,487.00
2024-01-20T10:04:31.846Z,488.00
2024-01-20T10:05:31.914Z,490.00
2024-01-20T10:06:31.908Z,489.00
2024-01-20T10:07:31.924Z,488.00
2024-01-20T10:08:33.280Z,489.00
2024-01-20T10:09:32.005Z,491.00
2024-01-20T10:10:31.995Z,491.00
2024-01-20T10:11:32.027Z,491.00
2024-01-20T10:12:32.104Z,490.00
2024-01-20T10:13:32.057Z,492.00
2024-01-20T10:14:32.070Z,492.00
2024-01-20T10:15:34.502Z,491.00
2024-01-20T10:16:32.096Z,490.00
2024-01-20T10:17:32.108Z,490.00
2024-01-20T10:18:32.182Z,485.00
2024-01-20T10:19:32.127Z,485.00
2024-01-20T10:20:32.082Z,484.00
2024-01-20T10:21:32.128Z,484.00
2024-01-20T10:22:32.097Z,484.00
2024-01-20T10:23:32.102Z,484.00
2024-01-20T10:24:32.156Z,486.00
2024-01-20T10:25:32.105Z,487.00
2024-01-20T10:26:32.131Z,486.00
2024-01-20T10:27:32.223Z,486.00
2024-01-20T10:28:32.115Z,488.00
2024-01-20T10:29:32.106Z,489.00
2024-01-20T10:30:32.170Z,488.00
2024-01-20T10:31:32.104Z,488.00
2024-01-20T10:32:47.125Z,488.00
2024-01-20T10:33:33.234Z,489.00
2024-01-20T10:34:32.271Z,487.00
2024-01-20T10:35:32.132Z,488.00
2024-01-20T10:36:32.162Z,487.00
2024-01-20T10:37:32.119Z,485.00
2024-01-20T10:38:32.148Z,483.00
2024-01-20T10:39:32.132Z,485.00
2024-01-20T10:40:32.142Z,484.00
2024-01-20T10:41:32.140Z,483.00
2024-01-20T10:42:32.201Z,483.00
2024-01-20T10:43:32.139Z,482.00
2024-01-20T10:44:32.135Z,481.00
2024-01-20T10:45:32.211Z,481.00
2024-01-20T10:46:32.144Z,480.00
2024-01-20T10:47:32.167Z,483.00
2024-01-20T10:48:32.221Z,481.00
2024-01-20T10:49:32.215Z,479.00
2024-01-20T10:50:32.147Z,480.00
2024-01-20T10:51:32.221Z,482.00
2024-01-20T10:52:32.219Z,484.00
2024-01-20T10:53:32.221Z,483.00
2024-01-20T10:54:32.308Z,484.00
2024-01-20T10:55:32.265Z,483.00
2024-01-20T10:56:32.287Z,484.00
2024-01-20T10:57:32.371Z,484.00
2024-01-20T10:58:32.359Z,481.00
2024-01-20T10:59:32.403Z,482.00
2024-01-20T11:00:32.496Z,483.00
2024-01-20T11:01:32.492Z,481.00
2024-01-20T11:02:32.561Z,481.00
2024-01-20T11:03:32.621Z,480.00
2024-01-20T11:04:32.691Z,476.00
2024-01-20T11:05:32.604Z,476.00
2024-01-20T11:06:32.828Z,477.00
2024-01-20T11:07:32.670Z,480.00
2024-01-20T11:08:32.756Z,482.00
2024-01-20T11:09:32.770Z,483.00
2024-01-20T11:10:32.753Z,483.00
2024-01-20T11:11:32.779Z,484.00
2024-01-20T11:12:32.828Z,485.00
2024-01-20T11:13:32.818Z,486.00
2024-01-20T11:14:32.889Z,486.00
2024-01-20T11:15:32.925Z,485.00
2024-01-20T11:16:32.909Z,482.00
2024-01-20T11:17:32.978Z,482.00
2024-01-20T11:18:33.002Z,481.00
2024-01-20T11:19:33.056Z,482.00
2024-01-20T11:20:33.015Z,478.00
2024-01-20T11:21:33.073Z,476.00
2024-01-20T11:22:33.148Z,477.00
2024-01-20T11:23:33.158Z,478.00
2024-01-20T11:24:33.233Z,478.00
2024-01-20T11:25:33.160Z,481.00
2024-01-20T11:26:33.178Z,482.00
2024-01-20T11:27:33.210Z,481.00
2024-01-20T11:28:33.260Z,479.00
2024-01-20T11:29:33.366Z,481.00
2024-01-20T11:30:33.469Z,480.00
2024-01-20T11:31:46.770Z,489.00
2024-01-20T11:32:46.765Z,481.00
2024-01-20T11:33:46.842Z,481.00
2024-01-20T11:34:46.845Z,481.00
2024-01-20T11:35:46.761Z,479.00
2024-01-20T11:36:46.803Z,480.00
2024-01-20T11:37:46.771Z,483.00
2024-01-20T11:38:46.753Z,482.00
2024-01-20T11:39:46.791Z,481.00
2024-01-20T11:40:46.767Z,482.00
2024-01-20T11:41:46.761Z,483.00
2024-01-20T11:42:46.788Z,483.00
2024-01-20T11:43:46.778Z,482.00
2024-01-20T11:44:46.766Z,482.00
2024-01-20T11:45:46.872Z,482.00
2024-01-20T11:46:46.797Z,483.00
2024-01-20T11:47:46.818Z,486.00
2024-01-20T11:48:46.908Z,486.00
2024-01-20T11:49:46.912Z,489.00
2024-01-20T11:50:46.864Z,487.00
2024-01-20T11:51:46.825Z,486.00
2024-01-20T11:52:46.794Z,486.00
2024-01-20T11:53:46.954Z,486.00
2024-01-20T11:54:46.811Z,488.00
2024-01-20T11:55:46.799Z,488.00
2024-01-20T11:56:46.801Z,487.00
2024-01-20T11:57:46.828Z,489.00
2024-01-20T11:58:46.835Z,487.00
2024-01-20T11:59:46.804Z,487.00
2024-01-20T12:00:46.869Z,487.00
2024-01-20T12:01:46.837Z,491.00
2024-01-20T12:02:46.811Z,492.00
2024-01-20T12:03:46.953Z,492.00
2024-01-20T12:04:46.822Z,489.00
2024-01-20T12:05:46.897Z,489.00
2024-01-20T12:06:46.840Z,490.00
2024-01-20T12:07:46.803Z,489.00
2024-01-20T12:08:46.906Z,491.00
2024-01-20T12:09:46.882Z,489.00
2024-01-20T12:10:46.804Z,487.00
2024-01-20T12:11:46.804Z,483.00
2024-01-20T12:12:46.812Z,483.00
2024-01-20T12:13:46.800Z,482.00
2024-01-20T12:14:46.817Z,480.00
2024-01-20T12:15:46.861Z,480.00
2024-01-20T12:16:46.813Z,475.00
2024-01-20T12:17:46.837Z,473.00
2024-01-20T12:18:46.975Z,472.00
2024-01-20T12:19:46.974Z,476.00
2024-01-20T12:20:46.819Z,479.00
2024-01-20T12:21:46.814Z,480.00
2024-01-20T12:22:46.831Z,480.00
2024-01-20T12:23:46.823Z,479.00
2024-01-20T12:24:46.830Z,477.00
2024-01-20T12:25:46.824Z,479.00
2024-01-20T12:26:46.830Z,477.00
2024-01-20T12:27:46.816Z,477.00
2024-01-20T12:28:46.825Z,477.00
2024-01-20T12:29:46.828Z,477.00
2024-01-20T12:30:46.891Z,478.00